createdAt,value
2023-01-26T00:01:38.503Z,14.03
2023-01-26T00:04:08.715Z,12.50
2023-01-26T00:06:41.437Z,14.43
2023-01-26T00:09:18.831Z,14.43
2023-01-26T00:11:48.906Z,14.77
2023-01-26T00:14:19.113Z,14.63
2023-01-26T00:16:49.199Z,16.07
2023-01-26T00:19:20.496Z,17.40
2023-01-26T00:21:53.165Z,17.83
2023-01-26T00:24:23.363Z,18.37
2023-01-26T00:26:53.457Z,18.27
2023-01-26T00:29:23.868Z,19.60
2023-01-26T00:31:53.948Z,18.97
2023-01-26T00:34:24.262Z,18.33
2023-01-26T00:36:56.916Z,18.80
2023-01-26T00:39:27.142Z,19.33
2023-01-26T00:42:09.979Z,19.80
2023-01-26T00:44:42.435Z,18.17
2023-01-26T00:47:15.676Z,19.80
2023-01-26T00:49:45.867Z,19.07
2023-01-26T00:52:26.318Z,18.03
2023-01-26T00:54:56.474Z,17.87
2023-01-26T00:57:26.591Z,18.70
2023-01-26T00:59:56.734Z,17.77
2023-01-26T01:02:26.865Z,16.70
2023-01-26T01:04:57.265Z,17.33
2023-01-26T01:07:29.935Z,17.00
2023-01-26T01:10:01.018Z,17.90
2023-01-26T01:12:31.365Z,17.77
2023-01-26T01:15:01.645Z,16.93
2023-01-26T01:17:31.878Z,15.83
2023-01-26T01:20:02.084Z,15.90
2023-01-26T01:22:35.013Z,15.63
2023-01-26T01:25:05.462Z,16.73
2023-01-26T01:27:35.640Z,15.10
2023-01-26T01:30:08.357Z,15.37
2023-01-26T01:32:40.242Z,15.13
2023-01-26T01:35:11.800Z,13.97
2023-01-26T01:37:44.489Z,14.87
2023-01-26T01:40:16.884Z,15.37
2023-01-26T01:42:51.330Z,14.87
2023-01-26T01:45:45.018Z,16.40
2023-01-26T01:48:28.670Z,14.93
2023-01-26T01:51:06.276Z,15.23
2023-01-26T01:53:46.143Z,15.80
2023-01-26T01:56:21.980Z,15.63
2023-01-26T01:58:57.674Z,16.17
2023-01-26T02:01:28.457Z,14.90
2023-01-26T02:04:03.787Z,14.13
2023-01-26T02:06:42.470Z,13.37
2023-01-26T02:09:36.923Z,13.30
2023-01-26T02:12:14.828Z,14.13
2023-01-26T02:14:45.453Z,14.83
2023-01-26T02:17:15.563Z,14.00
2023-01-26T02:20:08.564Z,13.97
2023-01-26T02:22:52.189Z,12.73
2023-01-26T02:25:39.197Z,13.43
2023-01-26T02:28:14.492Z,13.87
2023-01-26T02:30:44.683Z,13.63
2023-01-26T02:33:20.498Z,12.77
2023-01-26T02:35:50.859Z,14.17
2023-01-26T02:38:24.453Z,12.30
2023-01-26T02:40:59.275Z,13.27
2023-01-26T02:43:29.928Z,13.63
2023-01-26T02:46:00.215Z,12.90
2023-01-26T02:48:42.831Z,13.60
2023-01-26T02:51:14.823Z,13.10
2023-01-26T02:53:44.922Z,12.50
2023-01-26T02:56:12.990Z,14.07
2023-01-26T02:58:45.782Z,13.13
2023-01-26T03:01:15.995Z,12.80
2023-01-26T03:03:46.077Z,13.23
2023-01-26T03:06:16.476Z,12.60
2023-01-26T03:08:46.590Z,12.80
2023-01-26T03:11:16.631Z,13.53
2023-01-26T03:13:49.320Z,12.47
2023-01-26T03:16:19.484Z,11.23
2023-01-26T03:19:02.042Z,11.80
2023-01-26T03:21:44.595Z,11.70
2023-01-26T03:24:29.510Z,12.00
2023-01-26T03:27:12.395Z,12.57
2023-01-26T03:29:45.062Z,12.23
2023-01-26T03:32:16.982Z,12.97
2023-01-26T03:34:47.872Z,13.70
2023-01-26T03:37:22.759Z,12.80
2023-01-26T03:40:06.455Z,11.63
2023-01-26T03:42:50.110Z,13.27
2023-01-26T03:45:35.555Z,13.57
2023-01-26T03:48:23.819Z,12.87
2023-01-26T03:51:06.483Z,13.53
2023-01-26T03:53:49.049Z,12.40
2023-01-26T03:56:22.179Z,12.87
2023-01-26T03:58:56.289Z,13.53
2023-01-26T04:01:33.128Z,13.30
2023-01-26T04:04:15.883Z,13.67
2023-01-26T04:07:01.531Z,13.70
2023-01-26T04:09:32.398Z,13.67
2023-01-26T04:12:03.332Z,13.90
2023-01-26T04:14:50.253Z,13.73
2023-01-26T04:17:39.315Z,15.03
2023-01-26T04:20:27.706Z,15.40
2023-01-26T04:22:57.836Z,14.63
2023-01-26T04:25:28.094Z,14.00
2023-01-26T04:27:58.222Z,14.13
2023-01-26T04:30:28.449Z,15.10
2023-01-26T04:33:01.445Z,16.13
2023-01-26T04:35:31.581Z,15.10
2023-01-26T04:38:03.312Z,13.53
2023-01-26T04:40:33.469Z,14.70
2023-01-26T04:43:06.655Z,16.10
2023-01-26T04:45:36.835Z,19.23
2023-01-26T04:48:11.633Z,16.57
2023-01-26T04:50:41.768Z,16.50
2023-01-26T04:53:11.923Z,15.57
2023-01-26T04:55:42.088Z,18.90
2023-01-26T04:58:12.382Z,17.27
2023-01-26T05:00:42.621Z,15.43
2023-01-26T05:03:16.811Z,16.10
2023-01-26T05:05:47.604Z,15.50
2023-01-26T05:08:18.428Z,14.43
2023-01-26T05:10:49.706Z,15.50
2023-01-26T05:13:19.788Z,16.23
2023-01-26T05:15:50.397Z,15.20
2023-01-26T05:18:23.401Z,16.70
2023-01-26T05:20:53.606Z,14.37
2023-01-26T05:23:23.747Z,15.77
2023-01-26T05:25:54.251Z,16.40
2023-01-26T05:28:26.764Z,17.10
2023-01-26T05:30:57.200Z,14.70
2023-01-26T05:33:30.135Z,16.67
2023-01-26T05:36:00.967Z,17.30
2023-01-26T05:38:31.963Z,16.63
2023-01-26T05:41:02.444Z,16.13
2023-01-26T05:43:32.598Z,14.37
2023-01-26T05:46:02.797Z,15.63
2023-01-26T05:48:35.571Z,14.40
2023-01-26T05:51:05.677Z,14.17
2023-01-26T05:53:38.835Z,13.70
2023-01-26T05:56:13.968Z,13.53
2023-01-26T05:58:44.187Z,14.40
2023-01-26T06:01:14.290Z,12.43
2023-01-26T06:03:50.127Z,13.20
2023-01-26T06:06:20.826Z,12.80
2023-01-26T06:08:50.996Z,14.57
2023-01-26T06:11:21.079Z,13.87
2023-01-26T06:13:51.377Z,12.50
2023-01-26T06:16:21.590Z,13.30
2023-01-26T06:18:56.559Z,13.03
2023-01-26T06:21:26.812Z,13.63
2023-01-26T06:23:57.341Z,13.73
2023-01-26T06:26:29.199Z,12.97
2023-01-26T06:29:00.276Z,13.40
2023-01-26T06:31:33.639Z,15.03
2023-01-26T06:34:06.573Z,12.10
2023-01-26T06:36:36.687Z,13.03
2023-01-26T06:39:07.656Z,13.27
2023-01-26T06:41:37.735Z,14.53
2023-01-26T06:44:08.343Z,13.00
2023-01-26T06:46:38.591Z,12.27
2023-01-26T06:49:12.578Z,13.07
2023-01-26T06:51:59.917Z,13.00
2023-01-26T06:54:30.119Z,13.30
2023-01-26T06:57:00.185Z,13.93
2023-01-26T06:59:30.357Z,13.30
2023-01-26T07:02:00.491Z,12.67
2023-01-26T07:04:34.272Z,13.70
2023-01-26T07:07:04.578Z,13.50
2023-01-26T07:09:34.780Z,13.87
2023-01-26T07:12:04.878Z,14.27
2023-01-26T07:14:35.673Z,15.80
2023-01-26T07:17:06.597Z,14.60
2023-01-26T07:19:39.437Z,14.33
2023-01-26T07:22:09.555Z,15.27
2023-01-26T07:24:39.866Z,14.17
2023-01-26T07:27:10.782Z,14.33
2023-01-26T07:29:40.895Z,14.23
2023-01-26T07:32:11.379Z,15.63
2023-01-26T07:34:44.214Z,15.87
2023-01-26T07:37:14.327Z,15.10
2023-01-26T07:39:45.799Z,14.73
2023-01-26T07:42:16.130Z,15.20
2023-01-26T07:44:46.276Z,15.47
2023-01-26T07:47:18.498Z,14.53
2023-01-26T07:49:51.235Z,16.20
2023-01-26T07:52:22.904Z,16.13
2023-01-26T07:54:53.659Z,16.40
2023-01-26T07:57:31.172Z,14.87
2023-01-26T08:00:01.371Z,14.93
2023-01-26T08:02:31.551Z,16.83
2023-01-26T08:05:04.848Z,15.77
2023-01-26T08:07:34.982Z,15.60
2023-01-26T08:10:07.395Z,14.93
2023-01-26T08:12:41.116Z,16.27
2023-01-26T08:15:13.762Z,15.63
2023-01-26T08:17:45.187Z,16.47
2023-01-26T08:20:18.416Z,15.27
2023-01-26T08:22:48.502Z,15.63
2023-01-26T08:25:20.828Z,15.13
2023-01-26T08:27:50.946Z,15.77
2023-01-26T08:30:21.860Z,15.17
2023-01-26T08:32:51.933Z,16.30
2023-01-26T08:35:24.733Z,14.80
2023-01-26T08:37:54.814Z,18.53
2023-01-26T08:40:27.387Z,18.27
2023-01-26T08:42:57.511Z,14.10
2023-01-26T08:45:27.744Z,16.77
2023-01-26T08:47:57.884Z,16.43
2023-01-26T08:50:31.388Z,17.03
2023-01-26T08:53:01.600Z,16.90
2023-01-26T08:55:32.681Z,16.33
2023-01-26T08:58:02.794Z,16.90
2023-01-26T09:00:34.241Z,15.27
2023-01-26T09:03:06.302Z,16.33
2023-01-26T09:05:42.277Z,19.53
2023-01-26T09:08:15.915Z,17.67
2023-01-26T09:10:46.606Z,25.43
2023-01-26T09:13:16.941Z,17.20
2023-01-26T09:15:47.079Z,15.63
2023-01-26T09:18:18.540Z,16.83
2023-01-26T09:20:56.832Z,16.30
2023-01-26T09:23:27.033Z,16.20
2023-01-26T09:25:57.191Z,15.30
2023-01-26T09:28:27.362Z,16.70
2023-01-26T09:30:58.049Z,17.63
2023-01-26T09:33:28.261Z,16.33
2023-01-26T09:36:07.511Z,15.50
2023-01-26T09:38:38.103Z,16.63
2023-01-26T09:41:29.995Z,16.20
2023-01-26T09:44:08.785Z,14.83
2023-01-26T09:47:00.699Z,17.23
2023-01-26T09:49:46.094Z,25.07
2023-01-26T09:52:29.665Z,18.53
2023-01-26T09:55:11.081Z,14.80
2023-01-26T09:57:51.963Z,16.60
2023-01-26T10:00:30.687Z,15.27
2023-01-26T10:03:16.731Z,15.13
2023-01-26T10:05:54.987Z,15.60
2023-01-26T10:08:30.546Z,14.80
2023-01-26T10:11:08.917Z,14.50
2023-01-26T10:13:39.252Z,14.83
2023-01-26T10:16:14.498Z,13.70
2023-01-26T10:18:54.807Z,14.40
2023-01-26T10:21:32.647Z,14.30
2023-01-26T10:24:08.765Z,14.13
2023-01-26T10:26:38.896Z,14.40
2023-01-26T10:29:09.058Z,15.07
2023-01-26T10:31:39.153Z,13.57
2023-01-26T10:34:18.200Z,13.67
2023-01-26T10:36:52.146Z,14.43
2023-01-26T10:39:24.896Z,15.67
2023-01-26T10:42:03.967Z,13.83
2023-01-26T10:44:43.558Z,11.80
2023-01-26T10:47:22.432Z,13.47
2023-01-26T10:49:55.240Z,14.73
2023-01-26T10:52:27.864Z,15.87
2023-01-26T10:55:22.987Z,15.57
2023-01-26T10:57:53.252Z,15.73
2023-01-26T11:00:31.696Z,14.07
2023-01-26T11:03:18.585Z,16.07
2023-01-26T11:05:49.482Z,15.10
2023-01-26T11:08:37.768Z,16.13
2023-01-26T11:11:27.093Z,14.87
2023-01-26T11:14:18.689Z,15.67
2023-01-26T11:16:56.810Z,14.83
2023-01-26T11:19:56.591Z,15.27
2023-01-26T11:22:39.621Z,13.27
2023-01-26T11:25:30.947Z,13.83
2023-01-26T11:28:32.368Z,13.63
2023-01-26T11:31:22.749Z,14.10
2023-01-26T11:34:11.877Z,14.93
2023-01-26T11:36:55.398Z,14.93
2023-01-26T11:39:37.423Z,14.70
2023-01-26T11:42:28.438Z,16.20
2023-01-26T11:45:23.745Z,15.37
2023-01-26T11:48:12.840Z,17.50
2023-01-26T11:50:50.139Z,16.30
2023-01-26T11:53:58.426Z,17.90
2023-01-26T11:56:44.393Z,17.13
2023-01-26T11:59:22.007Z,18.47
2023-01-26T12:02:04.459Z,19.10
2023-01-26T12:04:45.389Z,18.73
2023-01-26T12:07:25.350Z,19.07
2023-01-26T12:09:56.281Z,18.57
2023-01-26T12:12:40.162Z,17.63
2023-01-26T12:15:18.620Z,18.33
2023-01-26T12:18:02.588Z,17.70
2023-01-26T12:20:41.761Z,16.47
2023-01-26T12:23:25.533Z,15.90
2023-01-26T12:26:05.319Z,16.93
2023-01-26T12:28:47.698Z,14.33
2023-01-26T12:31:29.391Z,17.13
2023-01-26T12:34:02.638Z,16.23
2023-01-26T12:36:49.293Z,16.63
2023-01-26T12:39:29.699Z,17.70
2023-01-26T12:42:31.109Z,16.77
2023-01-26T12:45:04.224Z,15.97
2023-01-26T12:47:40.970Z,15.97
2023-01-26T12:50:30.070Z,17.77
2023-01-26T12:53:08.565Z,14.20
2023-01-26T12:55:49.009Z,16.30
2023-01-26T12:58:27.499Z,15.97
2023-01-26T13:01:07.303Z,14.73
2023-01-26T13:03:41.990Z,12.97
2023-01-26T13:06:27.025Z,13.60
2023-01-26T13:09:07.399Z,12.63
2023-01-26T13:12:07.452Z,12.53
2023-01-26T13:15:00.902Z,12.20
2023-01-26T13:17:56.021Z,10.87
2023-01-26T13:20:50.009Z,11.87
2023-01-26T13:23:50.983Z,11.33
2023-01-26T13:26:54.827Z,11.60
2023-01-26T13:29:40.723Z,10.90
2023-01-26T13:32:59.975Z,12.47
2023-01-26T13:35:32.717Z,13.37
2023-01-26T13:38:17.153Z,13.93
2023-01-26T13:40:52.816Z,11.73
2023-01-26T13:43:39.469Z,12.67
2023-01-26T13:46:22.663Z,14.67
2023-01-26T13:48:55.712Z,12.70
2023-01-26T13:51:30.570Z,13.00
2023-01-26T13:54:08.401Z,13.03
2023-01-26T13:56:44.121Z,12.13
2023-01-26T13:59:17.571Z,13.40
2023-01-26T14:01:51.354Z,11.47
2023-01-26T14:04:24.317Z,12.27
2023-01-26T14:07:01.479Z,13.30
2023-01-26T14:09:35.363Z,15.87
2023-01-26T14:12:09.853Z,11.63
2023-01-26T14:14:41.397Z,14.57
2023-01-26T14:17:31.461Z,14.50
2023-01-26T14:20:03.741Z,16.80
2023-01-26T14:22:34.554Z,14.20
2023-01-26T14:25:04.727Z,13.30
2023-01-26T14:27:43.085Z,12.87
2023-01-26T14:30:31.463Z,11.93
2023-01-26T14:33:09.277Z,12.63
2023-01-26T14:35:40.902Z,13.67
2023-01-26T14:38:21.171Z,13.60
2023-01-26T14:40:53.567Z,12.30
2023-01-26T14:43:28.349Z,10.77
2023-01-26T14:46:08.534Z,10.40
2023-01-26T14:48:47.825Z,12.53
2023-01-26T14:51:24.159Z,12.50
2023-01-26T14:53:58.347Z,11.03
2023-01-26T14:56:38.645Z,11.70
2023-01-26T14:59:23.571Z,13.00
2023-01-26T15:01:54.019Z,15.40
2023-01-26T15:04:34.663Z,16.13
2023-01-26T15:07:36.249Z,10.27
2023-01-26T15:10:30.505Z,12.47
2023-01-26T15:13:08.712Z,10.57
2023-01-26T15:15:48.561Z,10.23
2023-01-26T15:18:26.275Z,12.10
2023-01-26T15:21:04.369Z,9.20
2023-01-26T15:23:38.100Z,7.97
2023-01-26T15:26:11.779Z,7.60
2023-01-26T15:28:43.377Z,7.43
2023-01-26T15:31:25.981Z,7.03
2023-01-26T15:34:01.761Z,7.43
2023-01-26T15:36:49.186Z,6.80
2023-01-26T15:39:21.634Z,6.93
2023-01-26T15:42:15.983Z,26.80
2023-01-26T15:44:46.142Z,10.13
2023-01-26T15:47:21.233Z,9.67
2023-01-26T15:49:51.561Z,18.10
2023-01-26T15:52:25.682Z,9.93
2023-01-26T15:54:58.528Z,12.17
2023-01-26T15:57:31.709Z,6.97
2023-01-26T16:00:02.165Z,7.90
2023-01-26T16:02:36.786Z,17.07
2023-01-26T16:05:07.455Z,8.03
2023-01-26T16:07:37.875Z,8.23
2023-01-26T16:10:09.888Z,10.93
2023-01-26T16:12:40.034Z,7.90
2023-01-26T16:15:41.687Z,27.47
2023-01-26T16:18:16.076Z,10.23
2023-01-26T16:20:49.493Z,6.80
2023-01-26T16:23:23.053Z,7.87
2023-01-26T16:25:54.605Z,7.37
2023-01-26T16:28:25.538Z,7.20
2023-01-26T16:30:55.767Z,8.67
2023-01-26T16:33:28.656Z,8.63
2023-01-26T16:35:58.817Z,7.57
2023-01-26T16:38:28.939Z,7.20
2023-01-26T16:40:59.094Z,9.40
2023-01-26T16:43:30.286Z,8.87
2023-01-26T16:46:00.733Z,8.40
2023-01-26T16:48:35.076Z,9.63
2023-01-26T16:51:17.387Z,9.60
2023-01-26T16:53:50.517Z,11.10
2023-01-26T16:56:24.521Z,11.30
2023-01-26T16:58:55.073Z,10.50
2023-01-26T17:01:28.560Z,9.47
2023-01-26T17:04:02.793Z,8.77
2023-01-26T17:06:34.138Z,9.47
2023-01-26T17:09:04.927Z,11.17
2023-01-26T17:11:35.198Z,11.00
2023-01-26T17:14:07.968Z,12.07
2023-01-26T17:16:38.341Z,14.73
2023-01-26T17:19:11.098Z,12.80
2023-01-26T17:21:41.244Z,11.43
2023-01-26T17:24:12.650Z,15.07
2023-01-26T17:26:42.818Z,13.77
2023-01-26T17:29:14.245Z,12.73
2023-01-26T17:31:44.491Z,12.73
2023-01-26T17:34:17.175Z,11.87
2023-01-26T17:36:47.318Z,13.67
2023-01-26T17:39:18.880Z,14.10
2023-01-26T17:41:49.359Z,15.73
2023-01-26T17:44:27.129Z,13.40
2023-01-26T17:46:57.251Z,15.67
2023-01-26T17:49:30.396Z,15.67
2023-01-26T17:52:00.627Z,13.40
2023-01-26T17:54:30.906Z,14.10
2023-01-26T17:57:01.778Z,16.43
2023-01-26T17:59:31.863Z,13.27
2023-01-26T18:02:02.071Z,17.57
2023-01-26T18:04:35.211Z,15.93
2023-01-26T18:07:05.481Z,19.20
2023-01-26T18:09:35.599Z,17.03
2023-01-26T18:12:05.776Z,16.17
2023-01-26T18:14:35.895Z,16.13
2023-01-26T18:17:05.990Z,17.50
2023-01-26T18:19:38.704Z,16.43
2023-01-26T18:22:08.734Z,16.53
2023-01-26T18:24:38.915Z,19.43
2023-01-26T18:27:12.032Z,18.97
2023-01-26T18:29:42.170Z,19.77
2023-01-26T18:32:12.336Z,20.53
2023-01-26T18:34:45.079Z,19.10
2023-01-26T18:37:15.319Z,19.90
2023-01-26T18:39:48.095Z,19.30
2023-01-26T18:42:19.543Z,18.70
2023-01-26T18:44:49.656Z,21.47
2023-01-26T18:47:19.731Z,19.57
2023-01-26T18:49:52.558Z,22.00
2023-01-26T18:52:22.774Z,20.40
2023-01-26T18:54:53.287Z,20.83
2023-01-26T18:57:26.098Z,22.00
2023-01-26T18:59:56.282Z,22.00
2023-01-26T19:02:26.380Z,21.00
2023-01-26T19:04:59.375Z,21.67
2023-01-26T19:07:29.846Z,22.80
2023-01-26T19:10:00.927Z,20.63
2023-01-26T19:12:31.829Z,22.17
2023-01-26T19:15:02.913Z,22.30
2023-01-26T19:17:33.518Z,21.60
2023-01-26T19:20:06.949Z,23.57
2023-01-26T19:22:37.271Z,27.43
2023-01-26T19:25:08.609Z,24.40
2023-01-26T19:27:40.474Z,22.70
2023-01-26T19:30:13.606Z,22.30
2023-01-26T19:33:04.285Z,20.37
2023-01-26T19:35:40.786Z,22.83
2023-01-26T19:38:11.244Z,26.40
2023-01-26T19:40:41.595Z,26.73
2023-01-26T19:43:12.594Z,25.53
2023-01-26T19:45:43.266Z,23.20
2023-01-26T19:48:13.693Z,25.83
2023-01-26T19:50:46.780Z,25.67
2023-01-26T19:53:17.100Z,21.93
2023-01-26T19:55:47.460Z,26.73
2023-01-26T19:58:17.925Z,24.97
2023-01-26T20:00:48.262Z,24.97
2023-01-26T20:03:19.006Z,23.57
2023-01-26T20:05:52.044Z,23.63
2023-01-26T20:08:22.353Z,23.17
2023-01-26T20:10:52.641Z,26.53
2023-01-26T20:13:22.886Z,25.90
2023-01-26T20:15:53.089Z,25.07
2023-01-26T20:18:23.190Z,23.20
2023-01-26T20:21:00.935Z,26.63
2023-01-26T20:23:31.744Z,22.47
2023-01-26T20:26:07.250Z,27.43
2023-01-26T20:28:40.087Z,25.90
2023-01-26T20:31:12.153Z,26.40
2023-01-26T20:33:42.535Z,26.37
2023-01-26T20:36:19.270Z,29.37
2023-01-26T20:38:51.321Z,25.37
2023-01-26T20:41:26.319Z,27.60
2023-01-26T20:44:01.168Z,28.03
2023-01-26T20:46:34.433Z,25.13
2023-01-26T20:49:05.369Z,23.60
2023-01-26T20:51:40.595Z,25.93
2023-01-26T20:54:13.508Z,25.70
2023-01-26T20:56:45.760Z,25.97
2023-01-26T20:59:16.372Z,24.80
2023-01-26T21:01:46.822Z,23.90
2023-01-26T21:04:17.242Z,25.07
2023-01-26T21:06:50.001Z,26.30
2023-01-26T21:09:21.206Z,25.40
2023-01-26T21:11:51.729Z,26.00
2023-01-26T21:14:21.838Z,26.40
2023-01-26T21:16:54.834Z,23.57
2023-01-26T21:19:24.986Z,22.27
2023-01-26T21:21:59.292Z,26.40
2023-01-26T21:24:29.451Z,24.90
2023-01-26T21:26:59.611Z,24.17
2023-01-26T21:29:29.719Z,24.63
2023-01-26T21:31:59.883Z,22.80
2023-01-26T21:34:30.003Z,25.67
2023-01-26T21:37:02.821Z,28.20
2023-01-26T21:39:33.251Z,24.80
2023-01-26T21:42:03.435Z,23.50
2023-01-26T21:44:55.742Z,25.03
2023-01-26T21:47:25.983Z,24.67
2023-01-26T21:49:58.675Z,23.87
2023-01-26T21:52:44.140Z,23.13
2023-01-26T21:55:14.348Z,23.37
2023-01-26T21:57:56.895Z,29.97
2023-01-26T22:00:27.166Z,32.10
2023-01-26T22:02:59.652Z,27.70
2023-01-26T22:05:29.836Z,27.37
2023-01-26T22:08:02.695Z,26.63
2023-01-26T22:10:32.802Z,27.47
2023-01-26T22:13:02.952Z,27.50
2023-01-26T22:15:36.231Z,24.17
2023-01-26T22:18:06.430Z,25.27
2023-01-26T22:20:37.166Z,27.27
2023-01-26T22:23:10.016Z,26.87
2023-01-26T22:25:40.809Z,29.60
2023-01-26T22:28:11.503Z,27.83
2023-01-26T22:30:41.627Z,26.00
2023-01-26T22:33:11.826Z,26.17
2023-01-26T22:35:50.624Z,25.40
2023-01-26T22:38:23.274Z,25.77
2023-01-26T22:40:53.442Z,23.17
2023-01-26T22:43:23.755Z,26.03
2023-01-26T22:45:54.056Z,25.77
2023-01-26T22:48:24.441Z,23.20
2023-01-26T22:50:58.705Z,23.67
2023-01-26T22:53:32.051Z,24.77
2023-01-26T22:56:02.186Z,25.10
2023-01-26T22:58:33.267Z,24.20
2023-01-26T23:01:12.662Z,25.80
2023-01-26T23:03:45.577Z,23.67
2023-01-26T23:06:17.814Z,25.00
2023-01-26T23:08:50.790Z,24.57
2023-01-26T23:11:24.208Z,22.07
2023-01-26T23:13:57.023Z,22.83
2023-01-26T23:16:28.767Z,23.97
2023-01-26T23:19:01.343Z,23.27
2023-01-26T23:21:32.809Z,21.63
2023-01-26T23:24:05.566Z,21.83
2023-01-26T23:26:36.196Z,26.70
2023-01-26T23:29:06.595Z,29.43
2023-01-26T23:31:36.929Z,24.10
2023-01-26T23:34:09.990Z,20.00
2023-01-26T23:36:41.061Z,19.97
2023-01-26T23:39:13.779Z,18.50
2023-01-26T23:41:43.975Z,18.20
2023-01-26T23:44:14.425Z,17.93
2023-01-26T23:46:46.038Z,15.10
2023-01-26T23:49:17.476Z,17.50
2023-01-26T23:51:47.903Z,14.53
2023-01-26T23:54:20.729Z,13.70
2023-01-26T23:56:50.873Z,14.10
2023-01-26T23:59:22.109Z,14.03
